sensor_id;sensor_type;location;lat;lon;timestamp;P1;durP1;ratioP1;P2;durP2;ratioP2
77722;SDS011;67811;42.656;23.394;2023-05-20T00:00:45;15.85;;;6.78;;
77722;SDS011;67811;42.656;23.394;2023-05-20T00:03:11;12.27;;;6.82;;
77722;SDS011;67811;42.656;23.394;2023-05-20T00:05:36;9.40;;;5.22;;
77722;SDS011;67811;42.656;23.394;2023-05-20T00:08:01;11.82;;;6.03;;
77722;SDS011;67811;42.656;23.394;2023-05-20T00:10:26;12.75;;;7.40;;
77722;SDS011;67811;42.656;23.394;2023-05-20T00:12:52;15.48;;;7.00;;
77722;SDS011;67811;42.656;23.394;2023-05-20T00:15:17;12.00;;;7.10;;
77722;SDS011;67811;42.656;23.394;2023-05-20T00:17:42;10.65;;;6.53;;
77722;SDS011;67811;42.656;23.394;2023-05-20T00:20:07;11.80;;;6.32;;
77722;SDS011;67811;42.656;23.394;2023-05-20T00:22:33;16.35;;;6.20;;
77722;SDS011;67811;42.656;23.394;2023-05-20T00:24:58;12.25;;;5.93;;
77722;SDS011;67811;42.656;23.394;2023-05-20T00:27:24;13.90;;;6.63;;
77722;SDS011;67811;42.656;23.394;2023-05-20T00:29:49;10.43;;;4.85;;
77722;SDS011;67811;42.656;23.394;2023-05-20T00:32:14;12.38;;;7.18;;
77722;SDS011;67811;42.656;23.394;2023-05-20T00:34:41;9.82;;;6.10;;
77722;SDS011;67811;42.656;23.394;2023-05-20T00:37:07;9.25;;;6.15;;
77722;SDS011;67811;42.656;23.394;2023-05-20T00:39:32;10.60;;;6.65;;
77722;SDS011;67811;42.656;23.394;2023-05-20T00:41:57;8.73;;;5.57;;
77722;SDS011;67811;42.656;23.394;2023-05-20T00:44:23;11.05;;;6.68;;
77722;SDS011;67811;42.656;23.394;2023-05-20T00:46:48;13.57;;;6.45;;
77722;SDS011;67811;42.656;23.394;2023-05-20T00:49:13;11.70;;;5.80;;
77722;SDS011;67811;42.656;23.394;2023-05-20T00:51:39;8.57;;;5.70;;
77722;SDS011;67811;42.656;23.394;2023-05-20T00:54:04;7.68;;;5.15;;
77722;SDS011;67811;42.656;23.394;2023-05-20T00:56:30;13.73;;;7.95;;
77722;SDS011;67811;42.656;23.394;2023-05-20T00:58:56;15.27;;;6.88;;
77722;SDS011;67811;42.656;23.394;2023-05-20T01:01:22;15.10;;;7.25;;
77722;SDS011;67811;42.656;23.394;2023-05-20T01:03:47;10.65;;;5.40;;
77722;SDS011;67811;42.656;23.394;2023-05-20T01:06:12;11.57;;;6.88;;
77722;SDS011;67811;42.656;23.394;2023-05-20T01:08:37;12.65;;;7.38;;
77722;SDS011;67811;42.656;23.394;2023-05-20T01:11:07;13.75;;;6.97;;
77722;SDS011;67811;42.656;23.394;2023-05-20T01:13:40;14.57;;;7.53;;
77722;SDS011;67811;42.656;23.394;2023-05-20T01:16:09;14.35;;;6.05;;
77722;SDS011;67811;42.656;23.394;2023-05-20T01:18:35;13.98;;;5.85;;
77722;SDS011;67811;42.656;23.394;2023-05-20T01:21:03;13.65;;;6.63;;
77722;SDS011;67811;42.656;23.394;2023-05-20T01:23:38;13.27;;;7.70;;
77722;SDS011;67811;42.656;23.394;2023-05-20T01:26:04;13.68;;;7.00;;
77722;SDS011;67811;42.656;23.394;2023-05-20T01:28:29;12.40;;;6.07;;
77722;SDS011;67811;42.656;23.394;2023-05-20T01:30:55;18.23;;;6.25;;
77722;SDS011;67811;42.656;23.394;2023-05-20T01:33:21;12.25;;;6.20;;
77722;SDS011;67811;42.656;23.394;2023-05-20T01:35:49;12.25;;;6.90;;
77722;SDS011;67811;42.656;23.394;2023-05-20T01:38:14;11.52;;;7.22;;
77722;SDS011;67811;42.656;23.394;2023-05-20T01:40:43;11.23;;;5.82;;
77722;SDS011;67811;42.656;23.394;2023-05-20T01:43:10;10.55;;;5.65;;
77722;SDS011;67811;42.656;23.394;2023-05-20T01:45:36;14.35;;;7.43;;
77722;SDS011;67811;42.656;23.394;2023-05-20T01:48:01;15.93;;;7.35;;
77722;SDS011;67811;42.656;23.394;2023-05-20T01:50:28;19.00;;;8.85;;
77722;SDS011;67811;42.656;23.394;2023-05-20T01:52:53;17.80;;;8.13;;
77722;SDS011;67811;42.656;23.394;2023-05-20T01:55:19;13.90;;;6.70;;
77722;SDS011;67811;42.656;23.394;2023-05-20T01:57:44;13.50;;;6.95;;
77722;SDS011;67811;42.656;23.394;2023-05-20T02:00:09;13.02;;;6.88;;
77722;SDS011;67811;42.656;23.394;2023-05-20T02:02:35;12.13;;;6.63;;
77722;SDS011;67811;42.656;23.394;2023-05-20T02:05:00;14.90;;;7.00;;
77722;SDS011;67811;42.656;23.394;2023-05-20T02:07:25;9.35;;;5.63;;
77722;SDS011;67811;42.656;23.394;2023-05-20T02:09:51;11.75;;;6.18;;
77722;SDS011;67811;42.656;23.394;2023-05-20T02:12:16;14.18;;;7.30;;
77722;SDS011;67811;42.656;23.394;2023-05-20T02:14:42;17.15;;;10.57;;
77722;SDS011;67811;42.656;23.394;2023-05-20T02:17:08;11.57;;;6.00;;
77722;SDS011;67811;42.656;23.394;2023-05-20T02:19:33;10.45;;;6.18;;
77722;SDS011;67811;42.656;23.394;2023-05-20T02:21:58;10.45;;;5.95;;
77722;SDS011;67811;42.656;23.394;2023-05-20T02:24:24;13.68;;;6.10;;
77722;SDS011;67811;42.656;23.394;2023-05-20T02:26:49;16.60;;;9.63;;
77722;SDS011;67811;42.656;23.394;2023-05-20T02:29:15;18.50;;;10.68;;
77722;SDS011;67811;42.656;23.394;2023-05-20T02:31:40;13.63;;;8.77;;
77722;SDS011;67811;42.656;23.394;2023-05-20T02:34:05;9.45;;;5.55;;
77722;SDS011;67811;42.656;23.394;2023-05-20T02:36:31;12.25;;;6.32;;
77722;SDS011;67811;42.656;23.394;2023-05-20T02:38:56;12.45;;;6.35;;
77722;SDS011;67811;42.656;23.394;2023-05-20T02:41:21;10.15;;;5.82;;
77722;SDS011;67811;42.656;23.394;2023-05-20T02:43:47;10.02;;;4.70;;
77722;SDS011;67811;42.656;23.394;2023-05-20T02:46:12;18.25;;;5.95;;
77722;SDS011;67811;42.656;23.394;2023-05-20T02:48:37;9.32;;;6.35;;
77722;SDS011;67811;42.656;23.394;2023-05-20T02:51:04;9.43;;;6.18;;
77722;SDS011;67811;42.656;23.394;2023-05-20T02:53:29;12.40;;;6.22;;
77722;SDS011;67811;42.656;23.394;2023-05-20T02:55:54;10.48;;;6.57;;
77722;SDS011;67811;42.656;23.394;2023-05-20T02:58:21;10.95;;;5.55;;
77722;SDS011;67811;42.656;23.394;2023-05-20T03:00:46;13.48;;;5.88;;
77722;SDS011;67811;42.656;23.394;2023-05-20T03:03:11;10.35;;;5.88;;
77722;SDS011;67811;42.656;23.394;2023-05-20T03:05:36;11.48;;;6.53;;
77722;SDS011;67811;42.656;23.394;2023-05-20T03:08:05;12.75;;;7.78;;
77722;SDS011;67811;42.656;23.394;2023-05-20T03:10:31;11.05;;;4.85;;
77722;SDS011;67811;42.656;23.394;2023-05-20T03:12:56;11.25;;;6.60;;
77722;SDS011;67811;42.656;23.394;2023-05-20T03:15:22;9.93;;;5.22;;
77722;SDS011;67811;42.656;23.394;2023-05-20T03:17:47;11.10;;;6.30;;
77722;SDS011;67811;42.656;23.394;2023-05-20T03:20:12;10.82;;;6.45;;
77722;SDS011;67811;42.656;23.394;2023-05-20T03:22:38;12.30;;;5.88;;
77722;SDS011;67811;42.656;23.394;2023-05-20T03:25:03;12.30;;;5.88;;
77722;SDS011;67811;42.656;23.394;2023-05-20T03:27:29;10.95;;;5.97;;
77722;SDS011;67811;42.656;23.394;2023-05-20T03:29:54;15.23;;;5.85;;
77722;SDS011;67811;42.656;23.394;2023-05-20T03:32:19;12.50;;;6.28;;
77722;SDS011;67811;42.656;23.394;2023-05-20T03:34:45;12.88;;;6.38;;
77722;SDS011;67811;42.656;23.394;2023-05-20T03:37:10;8.93;;;5.07;;
77722;SDS011;67811;42.656;23.394;2023-05-20T03:39:35;8.60;;;5.38;;
77722;SDS011;67811;42.656;23.394;2023-05-20T03:42:01;13.05;;;6.93;;
77722;SDS011;67811;42.656;23.394;2023-05-20T03:44:26;7.78;;;4.40;;
77722;SDS011;67811;42.656;23.394;2023-05-20T03:46:51;12.02;;;5.63;;
77722;SDS011;67811;42.656;23.394;2023-05-20T03:49:16;9.63;;;5.70;;
77722;SDS011;67811;42.656;23.394;2023-05-20T03:51:42;9.32;;;5.45;;
77722;SDS011;67811;42.656;23.394;2023-05-20T03:54:07;12.50;;;5.57;;
77722;SDS011;67811;42.656;23.394;2023-05-20T03:56:32;9.80;;;5.30;;
77722;SDS011;67811;42.656;23.394;2023-05-20T03:58:57;10.70;;;5.70;;
77722;SDS011;67811;42.656;23.394;2023-05-20T04:01:23;7.95;;;4.88;;
77722;SDS011;67811;42.656;23.394;2023-05-20T04:03:48;8.00;;;5.70;;
77722;SDS011;67811;42.656;23.394;2023-05-20T04:06:13;10.77;;;5.70;;
77722;SDS011;67811;42.656;23.394;2023-05-20T04:08:38;12.45;;;6.80;;
77722;SDS011;67811;42.656;23.394;2023-05-20T04:11:04;12.75;;;7.13;;
77722;SDS011;67811;42.656;23.394;2023-05-20T04:13:29;18.10;;;7.03;;
77722;SDS011;67811;42.656;23.394;2023-05-20T04:15:54;17.02;;;9.25;;
77722;SDS011;67811;42.656;23.394;2023-05-20T04:18:19;14.05;;;7.57;;
77722;SDS011;67811;42.656;23.394;2023-05-20T04:20:45;18.35;;;7.22;;
77722;SDS011;67811;42.656;23.394;2023-05-20T04:23:10;11.48;;;6.25;;
77722;SDS011;67811;42.656;23.394;2023-05-20T04:25:36;8.65;;;5.10;;
77722;SDS011;67811;42.656;23.394;2023-05-20T04:28:02;11.65;;;6.53;;
77722;SDS011;67811;42.656;23.394;2023-05-20T04:30:27;8.82;;;4.90;;
77722;SDS011;67811;42.656;23.394;2023-05-20T04:32:52;9.05;;;5.70;;
77722;SDS011;67811;42.656;23.394;2023-05-20T04:35:18;11.05;;;6.05;;
77722;SDS011;67811;42.656;23.394;2023-05-20T04:37:43;12.00;;;5.70;;
77722;SDS011;67811;42.656;23.394;2023-05-20T04:40:09;10.57;;;5.93;;
77722;SDS011;67811;42.656;23.394;2023-05-20T04:42:35;14.88;;;7.20;;
77722;SDS011;67811;42.656;23.394;2023-05-20T04:45:00;12.57;;;6.28;;
77722;SDS011;67811;42.656;23.394;2023-05-20T04:47:25;9.68;;;6.28;;
77722;SDS011;67811;42.656;23.394;2023-05-20T04:49:51;9.43;;;6.03;;
77722;SDS011;67811;42.656;23.394;2023-05-20T04:52:16;15.52;;;6.50;;
77722;SDS011;67811;42.656;23.394;2023-05-20T04:54:42;11.93;;;5.90;;
77722;SDS011;67811;42.656;23.394;2023-05-20T04:57:07;10.93;;;6.65;;
77722;SDS011;67811;42.656;23.394;2023-05-20T04:59:32;11.68;;;5.88;;
77722;SDS011;67811;42.656;23.394;2023-05-20T05:01:57;15.95;;;6.35;;
77722;SDS011;67811;42.656;23.394;2023-05-20T05:04:23;13.02;;;7.13;;
77722;SDS011;67811;42.656;23.394;2023-05-20T05:06:48;11.65;;;6.30;;
77722;SDS011;67811;42.656;23.394;2023-05-20T05:09:13;10.30;;;5.43;;
77722;SDS011;67811;42.656;23.394;2023-05-20T05:11:39;9.65;;;5.72;;
77722;SDS011;67811;42.656;23.394;2023-05-20T05:14:04;12.40;;;6.78;;
77722;SDS011;67811;42.656;23.394;2023-05-20T05:16:29;9.32;;;5.10;;
77722;SDS011;67811;42.656;23.394;2023-05-20T05:18:55;9.55;;;4.32;;
77722;SDS011;67811;42.656;23.394;2023-05-20T05:21:20;7.15;;;5.20;;
77722;SDS011;67811;42.656;23.394;2023-05-20T05:23:45;8.85;;;5.03;;
77722;SDS011;67811;42.656;23.394;2023-05-20T05:26:11;9.80;;;5.18;;
77722;SDS011;67811;42.656;23.394;2023-05-20T05:28:36;9.52;;;6.28;;
77722;SDS011;67811;42.656;23.394;2023-05-20T05:31:01;10.18;;;4.82;;
77722;SDS011;67811;42.656;23.394;2023-05-20T05:33:26;9.88;;;5.53;;
77722;SDS011;67811;42.656;23.394;2023-05-20T05:35:52;8.98;;;5.47;;
77722;SDS011;67811;42.656;23.394;2023-05-20T05:38:17;10.45;;;5.60;;
77722;SDS011;67811;42.656;23.394;2023-05-20T05:40:42;11.27;;;5.70;;
77722;SDS011;67811;42.656;23.394;2023-05-20T05:43:08;10.15;;;5.47;;
77722;SDS011;67811;42.656;23.394;2023-05-20T05:45:33;14.35;;;5.88;;
77722;SDS011;67811;42.656;23.394;2023-05-20T05:47:58;13.05;;;5.88;;
77722;SDS011;67811;42.656;23.394;2023-05-20T05:50:23;18.50;;;6.30;;
77722;SDS011;67811;42.656;23.394;2023-05-20T05:52:49;9.98;;;5.70;;
77722;SDS011;67811;42.656;23.394;2023-05-20T05:55:15;14.05;;;7.07;;
77722;SDS011;67811;42.656;23.394;2023-05-20T05:57:40;9.35;;;5.35;;
77722;SDS011;67811;42.656;23.394;2023-05-20T06:00:05;14.57;;;5.63;;
77722;SDS011;67811;42.656;23.394;2023-05-20T06:02:31;13.85;;;7.03;;
77722;SDS011;67811;42.656;23.394;2023-05-20T06:04:56;12.23;;;7.32;;
77722;SDS011;67811;42.656;23.394;2023-05-20T06:07:22;10.85;;;6.75;;
77722;SDS011;67811;42.656;23.394;2023-05-20T06:09:47;13.00;;;7.45;;
77722;SDS011;67811;42.656;23.394;2023-05-20T06:12:12;13.25;;;7.20;;
77722;SDS011;67811;42.656;23.394;2023-05-20T06:14:38;12.10;;;6.60;;
77722;SDS011;67811;42.656;23.394;2023-05-20T06:17:03;10.93;;;6.50;;
77722;SDS011;67811;42.656;23.394;2023-05-20T06:19:28;12.30;;;6.90;;
77722;SDS011;67811;42.656;23.394;2023-05-20T06:21:55;10.05;;;6.15;;
77722;SDS011;67811;42.656;23.394;2023-05-20T06:24:21;12.40;;;5.95;;
77722;SDS011;67811;42.656;23.394;2023-05-20T06:26:46;10.68;;;5.57;;
77722;SDS011;67811;42.656;23.394;2023-05-20T06:29:11;8.80;;;5.97;;
77722;SDS011;67811;42.656;23.394;2023-05-20T06:31:36;10.48;;;5.85;;
77722;SDS011;67811;42.656;23.394;2023-05-20T06:34:02;10.63;;;5.40;;
77722;SDS011;67811;42.656;23.394;2023-05-20T06:36:27;14.52;;;6.97;;
77722;SDS011;67811;42.656;23.394;2023-05-20T06:38:52;7.72;;;5.00;;
77722;SDS011;67811;42.656;23.394;2023-05-20T06:41:18;8.80;;;4.88;;
77722;SDS011;67811;42.656;23.394;2023-05-20T06:43:43;10.80;;;5.35;;
77722;SDS011;67811;42.656;23.394;2023-05-20T06:46:08;9.30;;;5.78;;
77722;SDS011;67811;42.656;23.394;2023-05-20T06:48:34;11.48;;;5.25;;
77722;SDS011;67811;42.656;23.394;2023-05-20T06:50:59;20.73;;;6.53;;
77722;SDS011;67811;42.656;23.394;2023-05-20T06:53:24;11.30;;;5.22;;
77722;SDS011;67811;42.656;23.394;2023-05-20T06:55:49;10.00;;;5.00;;
77722;SDS011;67811;42.656;23.394;2023-05-20T06:58:16;13.35;;;5.35;;
77722;SDS011;67811;42.656;23.394;2023-05-20T07:00:42;14.27;;;6.78;;
77722;SDS011;67811;42.656;23.394;2023-05-20T07:03:07;8.90;;;5.38;;
77722;SDS011;67811;42.656;23.394;2023-05-20T07:05:32;10.20;;;6.15;;
77722;SDS011;67811;42.656;23.394;2023-05-20T07:07:57;10.98;;;5.18;;
77722;SDS011;67811;42.656;23.394;2023-05-20T07:10:23;9.07;;;5.15;;
77722;SDS011;67811;42.656;23.394;2023-05-20T07:12:48;8.65;;;6.45;;
77722;SDS011;67811;42.656;23.394;2023-05-20T07:15:13;8.93;;;5.55;;
77722;SDS011;67811;42.656;23.394;2023-05-20T07:17:39;7.90;;;5.15;;
77722;SDS011;67811;42.656;23.394;2023-05-20T07:20:04;8.85;;;5.13;;
77722;SDS011;67811;42.656;23.394;2023-05-20T07:22:30;8.63;;;4.93;;
77722;SDS011;67811;42.656;23.394;2023-05-20T07:24:55;10.00;;;5.85;;
77722;SDS011;67811;42.656;23.394;2023-05-20T07:27:20;12.98;;;5.97;;
77722;SDS011;67811;42.656;23.394;2023-05-20T07:29:46;9.27;;;5.28;;
77722;SDS011;67811;42.656;23.394;2023-05-20T07:32:11;9.65;;;5.72;;
77722;SDS011;67811;42.656;23.394;2023-05-20T07:34:36;7.20;;;4.57;;
77722;SDS011;67811;42.656;23.394;2023-05-20T07:37:02;6.40;;;4.75;;
77722;SDS011;67811;42.656;23.394;2023-05-20T07:39:27;9.13;;;5.85;;
77722;SDS011;67811;42.656;23.394;2023-05-20T07:41:53;8.68;;;5.45;;
77722;SDS011;67811;42.656;23.394;2023-05-20T07:44:18;12.43;;;5.95;;
77722;SDS011;67811;42.656;23.394;2023-05-20T07:46:43;11.25;;;5.57;;
77722;SDS011;67811;42.656;23.394;2023-05-20T07:49:09;15.20;;;8.02;;
77722;SDS011;67811;42.656;23.394;2023-05-20T07:51:34;10.75;;;7.10;;
77722;SDS011;67811;42.656;23.394;2023-05-20T07:54:00;14.93;;;7.47;;
77722;SDS011;67811;42.656;23.394;2023-05-20T07:56:25;6.53;;;5.47;;
77722;SDS011;67811;42.656;23.394;2023-05-20T07:58:54;15.30;;;6.00;;
77722;SDS011;67811;42.656;23.394;2023-05-20T08:01:21;11.77;;;5.75;;
77722;SDS011;67811;42.656;23.394;2023-05-20T08:03:46;8.77;;;5.30;;
77722;SDS011;67811;42.656;23.394;2023-05-20T08:06:11;11.07;;;5.47;;
77722;SDS011;67811;42.656;23.394;2023-05-20T08:08:37;10.80;;;6.22;;
77722;SDS011;67811;42.656;23.394;2023-05-20T08:11:02;11.60;;;6.03;;
77722;SDS011;67811;42.656;23.394;2023-05-20T08:13:27;11.20;;;8.05;;
77722;SDS011;67811;42.656;23.394;2023-05-20T08:15:53;13.65;;;7.43;;
77722;SDS011;67811;42.656;23.394;2023-05-20T08:18:18;16.63;;;7.15;;
77722;SDS011;67811;42.656;23.394;2023-05-20T08:20:44;14.00;;;5.88;;
77722;SDS011;67811;42.656;23.394;2023-05-20T08:23:09;11.07;;;6.35;;
77722;SDS011;67811;42.656;23.394;2023-05-20T08:25:34;10.15;;;5.53;;
77722;SDS011;67811;42.656;23.394;2023-05-20T08:28:00;12.35;;;5.97;;
77722;SDS011;67811;42.656;23.394;2023-05-20T08:30:26;9.85;;;5.75;;
77722;SDS011;67811;42.656;23.394;2023-05-20T08:32:51;11.93;;;6.18;;
77722;SDS011;67811;42.656;23.394;2023-05-20T08:35:16;11.90;;;6.32;;
77722;SDS011;67811;42.656;23.394;2023-05-20T08:37:42;9.93;;;6.00;;
77722;SDS011;67811;42.656;23.394;2023-05-20T08:40:07;10.02;;;5.63;;
77722;SDS011;67811;42.656;23.394;2023-05-20T08:42:33;10.57;;;6.03;;
77722;SDS011;67811;42.656;23.394;2023-05-20T08:44:58;9.27;;;5.40;;
77722;SDS011;67811;42.656;23.394;2023-05-20T08:47:25;11.05;;;6.05;;
77722;SDS011;67811;42.656;23.394;2023-05-20T08:49:50;13.98;;;6.65;;
77722;SDS011;67811;42.656;23.394;2023-05-20T08:52:20;10.32;;;6.50;;
77722;SDS011;67811;42.656;23.394;2023-05-20T08:54:47;11.73;;;5.75;;
77722;SDS011;67811;42.656;23.394;2023-05-20T08:57:13;9.93;;;6.13;;
77722;SDS011;67811;42.656;23.394;2023-05-20T08:59:42;11.32;;;5.80;;
77722;SDS011;67811;42.656;23.394;2023-05-20T09:02:09;11.55;;;6.03;;
77722;SDS011;67811;42.656;23.394;2023-05-20T09:04:34;9.10;;;5.68;;
77722;SDS011;67811;42.656;23.394;2023-05-20T09:07:00;10.38;;;5.78;;
77722;SDS011;67811;42.656;23.394;2023-05-20T09:09:25;8.23;;;5.53;;
77722;SDS011;67811;42.656;23.394;2023-05-20T09:11:50;9.65;;;5.63;;
77722;SDS011;67811;42.656;23.394;2023-05-20T09:14:16;9.45;;;5.18;;
77722;SDS011;67811;42.656;23.394;2023-05-20T09:16:41;11.32;;;5.35;;
77722;SDS011;67811;42.656;23.394;2023-05-20T09:19:06;10.25;;;6.22;;
77722;SDS011;67811;42.656;23.394;2023-05-20T09:21:31;10.68;;;6.00;;
77722;SDS011;67811;42.656;23.394;2023-05-20T09:24:00;10.07;;;6.05;;
77722;SDS011;67811;42.656;23.394;2023-05-20T09:26:26;12.60;;;6.47;;
77722;SDS011;67811;42.656;23.394;2023-05-20T09:28:52;9.98;;;6.30;;
77722;SDS011;67811;42.656;23.394;2023-05-20T09:31:19;9.95;;;5.85;;
77722;SDS011;67811;42.656;23.394;2023-05-20T09:33:44;9.63;;;5.60;;
77722;SDS011;67811;42.656;23.394;2023-05-20T09:36:10;11.57;;;5.68;;
77722;SDS011;67811;42.656;23.394;2023-05-20T09:38:39;10.23;;;5.93;;
77722;SDS011;67811;42.656;23.394;2023-05-20T09:41:09;11.48;;;6.40;;
77722;SDS011;67811;42.656;23.394;2023-05-20T09:43:36;9.40;;;6.40;;
77722;SDS011;67811;42.656;23.394;2023-05-20T09:46:03;11.38;;;6.97;;
77722;SDS011;67811;42.656;23.394;2023-05-20T09:48:29;10.82;;;6.15;;
77722;SDS011;67811;42.656;23.394;2023-05-20T09:50:54;9.43;;;5.65;;
77722;SDS011;67811;42.656;23.394;2023-05-20T09:53:21;13.85;;;6.05;;
77722;SDS011;67811;42.656;23.394;2023-05-20T09:55:50;9.73;;;5.47;;
77722;SDS011;67811;42.656;23.394;2023-05-20T09:58:16;7.15;;;5.45;;
77722;SDS011;67811;42.656;23.394;2023-05-20T10:00:44;11.30;;;6.82;;
77722;SDS011;67811;42.656;23.394;2023-05-20T10:03:09;11.52;;;5.43;;
77722;SDS011;67811;42.656;23.394;2023-05-20T10:05:35;9.65;;;5.55;;
77722;SDS011;67811;42.656;23.394;2023-05-20T10:10:55;8.73;;;6.05;;
77722;SDS011;67811;42.656;23.394;2023-05-20T10:21:31;7.93;;;4.88;;
77722;SDS011;67811;42.656;23.394;2023-05-20T10:24:04;7.55;;;5.38;;
77722;SDS011;67811;42.656;23.394;2023-05-20T10:26:37;11.48;;;4.72;;
77722;SDS011;67811;42.656;23.394;2023-05-20T10:29:18;6.50;;;4.00;;
77722;SDS011;67811;42.656;23.394;2023-05-20T10:31:48;7.88;;;4.18;;
77722;SDS011;67811;42.656;23.394;2023-05-20T10:34:15;7.65;;;4.03;;
77722;SDS011;67811;42.656;23.394;2023-05-20T10:36:43;6.35;;;4.43;;
77722;SDS011;67811;42.656;23.394;2023-05-20T10:39:13;8.73;;;4.97;;
77722;SDS011;67811;42.656;23.394;2023-05-20T10:41:39;6.20;;;4.03;;
77722;SDS011;67811;42.656;23.394;2023-05-20T10:44:05;9.38;;;3.90;;
77722;SDS011;67811;42.656;23.394;2023-05-20T10:46:31;7.35;;;4.82;;
77722;SDS011;67811;42.656;23.394;2023-05-20T10:48:58;6.22;;;4.53;;
77722;SDS011;67811;42.656;23.394;2023-05-20T10:51:24;6.65;;;4.43;;
77722;SDS011;67811;42.656;23.394;2023-05-20T10:53:52;8.10;;;4.95;;
77722;SDS011;67811;42.656;23.394;2023-05-20T10:56:19;8.05;;;5.68;;
77722;SDS011;67811;42.656;23.394;2023-05-20T10:58:46;8.30;;;4.55;;
77722;SDS011;67811;42.656;23.394;2023-05-20T11:01:11;13.88;;;6.47;;
77722;SDS011;67811;42.656;23.394;2023-05-20T11:03:37;7.05;;;4.65;;
77722;SDS011;67811;42.656;23.394;2023-05-20T11:06:11;9.15;;;4.38;;
77722;SDS011;67811;42.656;23.394;2023-05-20T11:08:36;7.47;;;4.90;;
77722;SDS011;67811;42.656;23.394;2023-05-20T11:11:02;10.75;;;4.45;;
77722;SDS011;67811;42.656;23.394;2023-05-20T11:13:27;9.85;;;6.30;;
77722;SDS011;67811;42.656;23.394;2023-05-20T11:15:52;10.20;;;4.72;;
77722;SDS011;67811;42.656;23.394;2023-05-20T11:18:17;10.38;;;5.65;;
77722;SDS011;67811;42.656;23.394;2023-05-20T11:20:44;8.10;;;5.25;;
77722;SDS011;67811;42.656;23.394;2023-05-20T11:23:11;6.45;;;4.20;;
77722;SDS011;67811;42.656;23.394;2023-05-20T11:25:38;8.10;;;4.97;;
77722;SDS011;67811;42.656;23.394;2023-05-20T11:28:03;9.50;;;4.10;;
77722;SDS011;67811;42.656;23.394;2023-05-20T11:30:29;8.85;;;5.20;;
77722;SDS011;67811;42.656;23.394;2023-05-20T11:35:27;7.90;;;5.05;;
77722;SDS011;67811;42.656;23.394;2023-05-20T11:37:55;8.80;;;4.18;;
77722;SDS011;67811;42.656;23.394;2023-05-20T11:40:24;10.80;;;4.80;;
77722;SDS011;67811;42.656;23.394;2023-05-20T11:42:57;11.18;;;5.18;;
77722;SDS011;67811;42.656;23.394;2023-05-20T11:45:24;10.93;;;5.82;;
77722;SDS011;67811;42.656;23.394;2023-05-20T11:47:59;8.13;;;5.30;;
77722;SDS011;67811;42.656;23.394;2023-05-20T11:50:26;8.85;;;4.93;;
77722;SDS011;67811;42.656;23.394;2023-05-20T11:52:57;8.05;;;5.07;;
77722;SDS011;67811;42.656;23.394;2023-05-20T11:55:24;9.30;;;5.15;;
77722;SDS011;67811;42.656;23.394;2023-05-20T11:57:50;7.55;;;5.03;;
77722;SDS011;67811;42.656;23.394;2023-05-20T12:00:15;8.40;;;4.85;;
77722;SDS011;67811;42.656;23.394;2023-05-20T12:02:40;7.80;;;5.45;;
77722;SDS011;67811;42.656;23.394;2023-05-20T12:05:06;9.00;;;5.53;;
77722;SDS011;67811;42.656;23.394;2023-05-20T12:07:31;8.90;;;5.13;;
77722;SDS011;67811;42.656;23.394;2023-05-20T12:09:56;6.43;;;4.72;;
77722;SDS011;67811;42.656;23.394;2023-05-20T12:12:22;8.07;;;5.55;;
77722;SDS011;67811;42.656;23.394;2023-05-20T12:14:47;9.40;;;5.22;;
77722;SDS011;67811;42.656;23.394;2023-05-20T12:17:12;8.65;;;5.35;;
77722;SDS011;67811;42.656;23.394;2023-05-20T12:19:37;9.30;;;5.75;;
77722;SDS011;67811;42.656;23.394;2023-05-20T12:22:03;11.00;;;6.50;;
77722;SDS011;67811;42.656;23.394;2023-05-20T12:24:28;6.07;;;4.30;;
77722;SDS011;67811;42.656;23.394;2023-05-20T12:26:53;6.47;;;3.78;;
77722;SDS011;67811;42.656;23.394;2023-05-20T12:29:18;7.22;;;3.95;;
77722;SDS011;67811;42.656;23.394;2023-05-20T12:31:44;7.38;;;4.30;;
77722;SDS011;67811;42.656;23.394;2023-05-20T12:34:09;7.55;;;3.97;;
77722;SDS011;67811;42.656;23.394;2023-05-20T12:36:34;5.65;;;3.92;;
77722;SDS011;67811;42.656;23.394;2023-05-20T12:39:00;5.63;;;3.60;;
77722;SDS011;67811;42.656;23.394;2023-05-20T12:41:25;7.18;;;3.05;;
77722;SDS011;67811;42.656;23.394;2023-05-20T12:43:50;8.65;;;4.38;;
77722;SDS011;67811;42.656;23.394;2023-05-20T12:46:16;5.47;;;3.40;;
77722;SDS011;67811;42.656;23.394;2023-05-20T12:48:42;5.32;;;3.55;;
77722;SDS011;67811;42.656;23.394;2023-05-20T12:51:07;6.97;;;3.83;;
77722;SDS011;67811;42.656;23.394;2023-05-20T12:53:32;8.07;;;4.70;;
77722;SDS011;67811;42.656;23.394;2023-05-20T12:55:58;6.10;;;4.05;;
77722;SDS011;67811;42.656;23.394;2023-05-20T12:58:23;7.13;;;3.80;;
77722;SDS011;67811;42.656;23.394;2023-05-20T13:00:48;5.35;;;3.83;;
77722;SDS011;67811;42.656;23.394;2023-05-20T13:03:14;5.88;;;3.70;;
77722;SDS011;67811;42.656;23.394;2023-05-20T13:05:39;5.30;;;3.85;;
77722;SDS011;67811;42.656;23.394;2023-05-20T13:08:04;6.65;;;4.28;;
77722;SDS011;67811;42.656;23.394;2023-05-20T13:10:29;5.43;;;3.60;;
77722;SDS011;67811;42.656;23.394;2023-05-20T13:12:55;6.30;;;3.65;;
77722;SDS011;67811;42.656;23.394;2023-05-20T13:15:20;6.60;;;4.30;;
77722;SDS011;67811;42.656;23.394;2023-05-20T13:17:45;6.13;;;4.05;;
77722;SDS011;67811;42.656;23.394;2023-05-20T13:20:11;7.30;;;4.07;;
77722;SDS011;67811;42.656;23.394;2023-05-20T13:22:36;7.50;;;3.13;;
77722;SDS011;67811;42.656;23.394;2023-05-20T13:25:02;9.38;;;4.32;;
77722;SDS011;67811;42.656;23.394;2023-05-20T13:27:27;6.65;;;4.75;;
77722;SDS011;67811;42.656;23.394;2023-05-20T13:29:53;8.75;;;4.80;;
77722;SDS011;67811;42.656;23.394;2023-05-20T13:32:18;5.95;;;3.92;;
77722;SDS011;67811;42.656;23.394;2023-05-20T13:34:43;6.40;;;3.60;;
77722;SDS011;67811;42.656;23.394;2023-05-20T13:37:09;7.00;;;4.65;;
77722;SDS011;67811;42.656;23.394;2023-05-20T13:39:34;6.97;;;3.95;;
77722;SDS011;67811;42.656;23.394;2023-05-20T13:42:00;10.07;;;4.63;;
77722;SDS011;67811;42.656;23.394;2023-05-20T13:44:25;8.63;;;4.40;;
77722;SDS011;67811;42.656;23.394;2023-05-20T13:46:50;6.80;;;3.55;;
77722;SDS011;67811;42.656;23.394;2023-05-20T13:49:16;6.45;;;4.18;;
77722;SDS011;67811;42.656;23.394;2023-05-20T13:51:41;5.13;;;3.97;;
77722;SDS011;67811;42.656;23.394;2023-05-20T13:54:07;8.23;;;3.97;;
77722;SDS011;67811;42.656;23.394;2023-05-20T13:56:32;6.03;;;3.67;;
77722;SDS011;67811;42.656;23.394;2023-05-20T13:58:58;5.88;;;3.65;;
77722;SDS011;67811;42.656;23.394;2023-05-20T14:01:23;5.75;;;4.38;;
77722;SDS011;67811;42.656;23.394;2023-05-20T14:03:48;8.07;;;4.13;;
77722;SDS011;67811;42.656;23.394;2023-05-20T14:06:13;9.40;;;4.70;;
77722;SDS011;67811;42.656;23.394;2023-05-20T14:08:39;7.35;;;4.53;;
77722;SDS011;67811;42.656;23.394;2023-05-20T14:11:04;6.97;;;4.15;;
77722;SDS011;67811;42.656;23.394;2023-05-20T14:13:29;7.78;;;4.22;;
77722;SDS011;67811;42.656;23.394;2023-05-20T14:15:55;6.90;;;5.82;;
77722;SDS011;67811;42.656;23.394;2023-05-20T14:18:20;7.68;;;5.55;;
77722;SDS011;67811;42.656;23.394;2023-05-20T14:20:45;8.73;;;4.90;;
77722;SDS011;67811;42.656;23.394;2023-05-20T14:23:11;4.70;;;2.75;;
77722;SDS011;67811;42.656;23.394;2023-05-20T14:25:37;8.73;;;5.28;;
77722;SDS011;67811;42.656;23.394;2023-05-20T14:28:02;7.43;;;4.90;;
77722;SDS011;67811;42.656;23.394;2023-05-20T14:30:28;7.93;;;4.80;;
77722;SDS011;67811;42.656;23.394;2023-05-20T14:32:53;6.40;;;4.40;;